sensor_id;sensor_type;location;lat;lon;timestamp;pressure;altitude;pressure_sealevel;temperature;humidity
67803;BME280;54601;51.378;-1.342;2023-03-13T00:02:02;98192.15;;;18.77;31.97
67803;BME280;54601;51.378;-1.342;2023-03-13T00:04:27;98191.62;;;18.35;32.45
67803;BME280;54601;51.378;-1.342;2023-03-13T00:06:52;98206.22;;;18.28;32.72
67803;BME280;54601;51.378;-1.342;2023-03-13T00:09:17;98205.31;;;18.52;32.42
67803;BME280;54601;51.378;-1.342;2023-03-13T00:11:43;98197.35;;;18.87;31.85
67803;BME280;54601;51.378;-1.342;2023-03-13T00:14:08;98194.17;;;18.29;32.64
67803;BME280;54601;51.378;-1.342;2023-03-13T00:16:33;98177.54;;;18.53;32.37
67803;BME280;54601;51.378;-1.342;2023-03-13T00:18:58;98179.41;;;18.83;31.93
67803;BME280;54601;51.378;-1.342;2023-03-13T00:21:25;98178.79;;;18.57;32.38
67803;BME280;54601;51.378;-1.342;2023-03-13T00:23:49;98180.28;;;18.34;32.66
67803;BME280;54601;51.378;-1.342;2023-03-13T00:26:15;98161.46;;;18.45;32.57
67803;BME280;54601;51.378;-1.342;2023-03-13T00:28:40;98166.37;;;18.55;32.33
67803;BME280;54601;51.378;-1.342;2023-03-13T00:31:05;98174.07;;;18.19;32.89
67803;BME280;54601;51.378;-1.342;2023-03-13T00:33:31;98157.49;;;18.64;32.30
67803;BME280;54601;51.378;-1.342;2023-03-13T00:35:57;98163.04;;;18.27;32.70
67803;BME280;54601;51.378;-1.342;2023-03-13T00:38:19;98124.18;;;18.28;32.86
67803;BME280;54601;51.378;-1.342;2023-03-13T00:40:44;98123.87;;;18.32;32.84
67803;BME280;54601;51.378;-1.342;2023-03-13T00:43:10;98114.12;;;18.13;33.13
67803;BME280;54601;51.378;-1.342;2023-03-13T00:45:35;98126.41;;;18.54;32.54
67803;BME280;54601;51.378;-1.342;2023-03-13T00:48:00;98134.18;;;18.50;32.56
67803;BME280;54601;51.378;-1.342;2023-03-13T00:50:25;98130.87;;;18.48;32.66
67803;BME280;54601;51.378;-1.342;2023-03-13T00:52:50;98120.35;;;18.26;32.92
67803;BME280;54601;51.378;-1.342;2023-03-13T00:55:16;98102.63;;;18.41;32.75
67803;BME280;54601;51.378;-1.342;2023-03-13T00:57:41;98129.13;;;17.96;33.44
67803;BME280;54601;51.378;-1.342;2023-03-13T01:00:07;98130.04;;;18.41;33.20
67803;BME280;54601;51.378;-1.342;2023-03-13T01:02:31;98126.02;;;18.67;32.28
67803;BME280;54601;51.378;-1.342;2023-03-13T01:04:56;98121.47;;;18.26;32.98
67803;BME280;54601;51.378;-1.342;2023-03-13T01:07:21;98119.54;;;18.60;32.64
67803;BME280;54601;51.378;-1.342;2023-03-13T01:09:46;98125.09;;;19.03;32.64
67803;BME280;54601;51.378;-1.342;2023-03-13T01:12:12;98121.35;;;18.39;33.17
67803;BME280;54601;51.378;-1.342;2023-03-13T01:14:37;98110.86;;;18.47;32.80
67803;BME280;54601;51.378;-1.342;2023-03-13T01:17:02;98105.63;;;18.27;33.02
67803;BME280;54601;51.378;-1.342;2023-03-13T01:19:27;98103.63;;;18.28;32.88
67803;BME280;54601;51.378;-1.342;2023-03-13T01:21:52;98112.71;;;18.52;32.71
67803;BME280;54601;51.378;-1.342;2023-03-13T01:24:17;98100.17;;;18.82;32.54
67803;BME280;54601;51.378;-1.342;2023-03-13T01:26:43;98100.74;;;18.31;32.98
67803;BME280;54601;51.378;-1.342;2023-03-13T01:29:08;98100.05;;;18.42;32.82
67803;BME280;54601;51.378;-1.342;2023-03-13T01:31:34;98097.80;;;18.90;32.54
67803;BME280;54601;51.378;-1.342;2023-03-13T01:34:00;98088.84;;;18.78;33.02
67803;BME280;54601;51.378;-1.342;2023-03-13T01:36:24;98084.36;;;18.22;33.20
67803;BME280;54601;51.378;-1.342;2023-03-13T01:38:49;98070.44;;;18.46;33.16
67803;BME280;54601;51.378;-1.342;2023-03-13T01:41:14;98050.73;;;18.28;33.02
67803;BME280;54601;51.378;-1.342;2023-03-13T01:43:39;98067.99;;;18.57;32.59
67803;BME280;54601;51.378;-1.342;2023-03-13T01:46:12;98065.41;;;18.27;33.08
67803;BME280;54601;51.378;-1.342;2023-03-13T01:48:35;98059.04;;;18.24;33.14
67803;BME280;54601;51.378;-1.342;2023-03-13T01:50:55;98050.37;;;18.25;33.09
67803;BME280;54601;51.378;-1.342;2023-03-13T01:53:19;98042.46;;;18.19;33.31
67803;BME280;54601;51.378;-1.342;2023-03-13T01:55:45;98032.08;;;18.45;32.83
67803;BME280;54601;51.378;-1.342;2023-03-13T01:58:11;98023.68;;;18.16;33.24
67803;BME280;54601;51.378;-1.342;2023-03-13T02:00:36;98032.59;;;18.15;33.31
67803;BME280;54601;51.378;-1.342;2023-03-13T02:03:03;98030.71;;;18.43;33.68
67803;BME280;54601;51.378;-1.342;2023-03-13T02:05:26;98034.69;;;17.92;33.75
67803;BME280;54601;51.378;-1.342;2023-03-13T02:07:55;98027.11;;;17.85;33.62
67803;BME280;54601;51.378;-1.342;2023-03-13T02:10:16;98023.15;;;18.71;33.20
67803;BME280;54601;51.378;-1.342;2023-03-13T02:12:41;98027.69;;;17.81;33.65
67803;BME280;54601;51.378;-1.342;2023-03-13T02:15:09;98026.68;;;18.12;33.72
67803;BME280;54601;51.378;-1.342;2023-03-13T02:17:33;98025.35;;;18.62;33.39
67803;BME280;54601;51.378;-1.342;2023-03-13T02:19:56;98027.31;;;18.19;33.17
67803;BME280;54601;51.378;-1.342;2023-03-13T02:22:26;98021.25;;;18.32;32.99
67803;BME280;54601;51.378;-1.342;2023-03-13T02:24:51;98016.44;;;18.46;32.92
67803;BME280;54601;51.378;-1.342;2023-03-13T02:27:12;98025.45;;;18.37;32.90
67803;BME280;54601;51.378;-1.342;2023-03-13T02:29:37;98018.98;;;18.62;32.44
67803;BME280;54601;51.378;-1.342;2023-03-13T02:32:03;98020.68;;;18.69;32.27
67803;BME280;54601;51.378;-1.342;2023-03-13T02:34:30;98019.16;;;18.55;32.61
67803;BME280;54601;51.378;-1.342;2023-03-13T02:36:52;98013.69;;;18.50;32.69
67803;BME280;54601;51.378;-1.342;2023-03-13T02:39:19;98014.52;;;18.21;33.22
67803;BME280;54601;51.378;-1.342;2023-03-13T02:41:44;98010.47;;;18.78;32.73
67803;BME280;54601;51.378;-1.342;2023-03-13T02:44:08;98021.42;;;18.30;33.05
67803;BME280;54601;51.378;-1.342;2023-03-13T02:51:28;98017.95;;;18.38;33.34
67803;BME280;54601;51.378;-1.342;2023-03-13T02:53:51;98015.44;;;18.15;33.29
67803;BME280;54601;51.378;-1.342;2023-03-13T02:56:14;98019.28;;;18.48;33.14
67803;BME280;54601;51.378;-1.342;2023-03-13T02:58:39;98009.01;;;18.42;33.25
67803;BME280;54601;51.378;-1.342;2023-03-13T03:01:04;98011.25;;;18.41;32.94
67803;BME280;54601;51.378;-1.342;2023-03-13T03:03:29;98003.83;;;19.02;32.67
67803;BME280;54601;51.378;-1.342;2023-03-13T03:05:54;98002.25;;;18.45;32.72
67803;BME280;54601;51.378;-1.342;2023-03-13T03:08:19;98003.34;;;18.72;32.35
67803;BME280;54601;51.378;-1.342;2023-03-13T03:10:44;97996.95;;;18.46;32.72
67803;BME280;54601;51.378;-1.342;2023-03-13T03:13:10;97999.79;;;19.06;32.53
67803;BME280;54601;51.378;-1.342;2023-03-13T03:15:35;97986.42;;;18.37;32.72
67803;BME280;54601;51.378;-1.342;2023-03-13T03:18:00;97990.88;;;18.81;33.00
67803;BME280;54601;51.378;-1.342;2023-03-13T03:20:25;97980.47;;;18.42;33.16
67803;BME280;54601;51.378;-1.342;2023-03-13T03:22:50;97994.63;;;18.80;32.59
67803;BME280;54601;51.378;-1.342;2023-03-13T03:25:16;97977.37;;;18.45;32.74
67803;BME280;54601;51.378;-1.342;2023-03-13T03:27:41;97977.26;;;18.47;32.79
67803;BME280;54601;51.378;-1.342;2023-03-13T03:30:07;97987.06;;;18.23;33.07
67803;BME280;54601;51.378;-1.342;2023-03-13T03:32:31;97991.69;;;18.25;32.97
67803;BME280;54601;51.378;-1.342;2023-03-13T03:34:56;97987.60;;;18.58;32.53
67803;BME280;54601;51.378;-1.342;2023-03-13T03:37:21;97983.89;;;18.60;32.92
67803;BME280;54601;51.378;-1.342;2023-03-13T03:39:46;97981.66;;;18.60;32.64
67803;BME280;54601;51.378;-1.342;2023-03-13T03:42:11;97985.40;;;18.42;32.83
67803;BME280;54601;51.378;-1.342;2023-03-13T03:44:37;97983.70;;;18.60;32.55
67803;BME280;54601;51.378;-1.342;2023-03-13T03:47:02;97974.00;;;18.80;32.53
67803;BME280;54601;51.378;-1.342;2023-03-13T03:49:27;97969.02;;;18.50;32.64
67803;BME280;54601;51.378;-1.342;2023-03-13T03:51:52;97942.68;;;18.54;32.63
67803;BME280;54601;51.378;-1.342;2023-03-13T03:54:17;97948.62;;;18.40;32.86
67803;BME280;54601;51.378;-1.342;2023-03-13T03:56:42;97955.22;;;18.58;32.40
67803;BME280;54601;51.378;-1.342;2023-03-13T03:59:08;97955.82;;;18.38;32.85
67803;BME280;54601;51.378;-1.342;2023-03-13T04:01:33;97947.66;;;18.37;32.72
67803;BME280;54601;51.378;-1.342;2023-03-13T04:03:58;97938.39;;;18.55;32.47
67803;BME280;54601;51.378;-1.342;2023-03-13T04:06:23;97922.80;;;18.66;32.40
67803;BME280;54601;51.378;-1.342;2023-03-13T04:08:48;97913.53;;;18.46;32.54
67803;BME280;54601;51.378;-1.342;2023-03-13T04:11:13;97911.49;;;18.65;32.37
67803;BME280;54601;51.378;-1.342;2023-03-13T04:13:38;97900.45;;;18.68;32.35
67803;BME280;54601;51.378;-1.342;2023-03-13T04:16:06;97900.86;;;18.89;32.33
67803;BME280;54601;51.378;-1.342;2023-03-13T04:18:29;97889.48;;;18.52;32.48
67803;BME280;54601;51.378;-1.342;2023-03-13T04:20:59;97898.00;;;18.53;32.88
67803;BME280;54601;51.378;-1.342;2023-03-13T04:23:19;97885.21;;;18.25;32.92
67803;BME280;54601;51.378;-1.342;2023-03-13T04:25:44;97869.11;;;18.01;33.26
67803;BME280;54601;51.378;-1.342;2023-03-13T04:28:09;97875.87;;;17.96;33.43
67803;BME280;54601;51.378;-1.342;2023-03-13T04:30:35;97879.27;;;18.47;33.05
67803;BME280;54601;51.378;-1.342;2023-03-13T04:33:05;97863.53;;;18.31;32.79
67803;BME280;54601;51.378;-1.342;2023-03-13T04:35:25;97868.59;;;18.19;33.09
67803;BME280;54601;51.378;-1.342;2023-03-13T04:37:50;97876.17;;;17.75;33.67
67803;BME280;54601;51.378;-1.342;2023-03-13T04:40:15;97892.46;;;18.02;33.31
67803;BME280;54601;51.378;-1.342;2023-03-13T04:42:41;97893.85;;;18.20;33.97
67803;BME280;54601;51.378;-1.342;2023-03-13T04:45:07;97890.41;;;18.22;33.72
67803;BME280;54601;51.378;-1.342;2023-03-13T04:47:31;97891.87;;;18.38;33.26
67803;BME280;54601;51.378;-1.342;2023-03-13T04:49:56;97886.48;;;17.90;33.66
67803;BME280;54601;51.378;-1.342;2023-03-13T04:52:21;97885.52;;;18.45;33.40
67803;BME280;54601;51.378;-1.342;2023-03-13T04:54:46;97870.92;;;18.66;33.12
67803;BME280;54601;51.378;-1.342;2023-03-13T04:57:11;97873.17;;;18.10;33.66
67803;BME280;54601;51.378;-1.342;2023-03-13T04:59:36;97870.35;;;18.13;33.15
67803;BME280;54601;51.378;-1.342;2023-03-13T05:02:02;97858.96;;;18.05;33.62
67803;BME280;54601;51.378;-1.342;2023-03-13T05:04:27;97873.11;;;18.32;33.19
67803;BME280;54601;51.378;-1.342;2023-03-13T05:06:52;97865.39;;;18.64;32.66
67803;BME280;54601;51.378;-1.342;2023-03-13T05:09:17;97870.78;;;18.26;33.34
67803;BME280;54601;51.378;-1.342;2023-03-13T05:11:42;97871.29;;;18.48;33.33
67803;BME280;54601;51.378;-1.342;2023-03-13T05:14:08;97863.34;;;17.76;33.64
67803;BME280;54601;51.378;-1.342;2023-03-13T05:16:32;97870.42;;;18.20;33.36
67803;BME280;54601;51.378;-1.342;2023-03-13T05:18:58;97851.59;;;18.89;32.56
67803;BME280;54601;51.378;-1.342;2023-03-13T05:21:23;97854.91;;;18.36;33.42
67803;BME280;54601;51.378;-1.342;2023-03-13T05:23:48;97859.92;;;18.42;32.96
67803;BME280;54601;51.378;-1.342;2023-03-13T05:26:13;97865.97;;;17.89;33.39
67803;BME280;54601;51.378;-1.342;2023-03-13T05:28:38;97859.74;;;18.55;33.18
67803;BME280;54601;51.378;-1.342;2023-03-13T05:31:03;97845.00;;;18.02;33.25
67803;BME280;54601;51.378;-1.342;2023-03-13T05:33:29;97846.10;;;18.66;32.94
67803;BME280;54601;51.378;-1.342;2023-03-13T05:35:54;97838.48;;;18.37;33.34
67803;BME280;54601;51.378;-1.342;2023-03-13T05:38:19;97856.90;;;18.26;33.17
67803;BME280;54601;51.378;-1.342;2023-03-13T05:40:44;97850.78;;;18.28;33.20
67803;BME280;54601;51.378;-1.342;2023-03-13T05:43:09;97865.87;;;18.40;33.07
67803;BME280;54601;51.378;-1.342;2023-03-13T05:45:34;97845.59;;;18.34;33.34
67803;BME280;54601;51.378;-1.342;2023-03-13T05:47:59;97852.35;;;17.75;33.57
67803;BME280;54601;51.378;-1.342;2023-03-13T05:50:25;97852.54;;;18.50;32.74
67803;BME280;54601;51.378;-1.342;2023-03-13T05:52:50;97836.80;;;18.73;32.70
67803;BME280;54601;51.378;-1.342;2023-03-13T05:55:15;97852.22;;;17.99;33.23
67803;BME280;54601;51.378;-1.342;2023-03-13T05:57:43;97850.19;;;18.26;33.10
67803;BME280;54601;51.378;-1.342;2023-03-13T06:00:06;97829.65;;;17.94;33.60
67803;BME280;54601;51.378;-1.342;2023-03-13T06:02:30;97824.32;;;18.35;33.30
67803;BME280;54601;51.378;-1.342;2023-03-13T06:04:55;97811.71;;;18.38;33.32
67803;BME280;54601;51.378;-1.342;2023-03-13T06:07:21;97820.48;;;18.34;33.44
67803;BME280;54601;51.378;-1.342;2023-03-13T06:09:46;97821.02;;;18.36;33.28
67803;BME280;54601;51.378;-1.342;2023-03-13T06:12:11;97817.92;;;17.88;33.28
67803;BME280;54601;51.378;-1.342;2023-03-13T06:14:37;97827.25;;;18.33;33.28
67803;BME280;54601;51.378;-1.342;2023-03-13T06:17:01;97817.95;;;17.57;33.69
67803;BME280;54601;51.378;-1.342;2023-03-13T06:19:26;97821.38;;;18.20;33.37
67803;BME280;54601;51.378;-1.342;2023-03-13T06:21:51;97826.08;;;17.88;33.69
67803;BME280;54601;51.378;-1.342;2023-03-13T06:24:17;97821.55;;;18.06;33.68
67803;BME280;54601;51.378;-1.342;2023-03-13T06:26:42;97808.90;;;18.30;33.32
67803;BME280;54601;51.378;-1.342;2023-03-13T06:29:08;97801.09;;;17.61;33.59
67803;BME280;54601;51.378;-1.342;2023-03-13T06:31:32;97798.58;;;17.98;33.47
67803;BME280;54601;51.378;-1.342;2023-03-13T06:33:57;97777.05;;;18.16;33.43
67803;BME280;54601;51.378;-1.342;2023-03-13T06:36:23;97794.47;;;18.02;33.64
67803;BME280;54601;51.378;-1.342;2023-03-13T06:38:48;97795.81;;;18.15;33.45
67803;BME280;54601;51.378;-1.342;2023-03-13T06:41:13;97788.78;;;17.81;33.45
67803;BME280;54601;51.378;-1.342;2023-03-13T06:43:38;97785.74;;;17.95;33.39
67803;BME280;54601;51.378;-1.342;2023-03-13T06:46:04;97769.25;;;17.67;33.81
67803;BME280;54601;51.378;-1.342;2023-03-13T06:48:28;97771.69;;;18.30;33.04
67803;BME280;54601;51.378;-1.342;2023-03-13T06:50:53;97769.49;;;17.98;33.35
67803;BME280;54601;51.378;-1.342;2023-03-13T06:53:19;97775.05;;;18.02;33.54
67803;BME280;54601;51.378;-1.342;2023-03-13T06:55:45;97756.17;;;17.63;33.88
67803;BME280;54601;51.378;-1.342;2023-03-13T06:58:09;97752.96;;;17.85;33.78
67803;BME280;54601;51.378;-1.342;2023-03-13T07:00:34;97758.16;;;17.73;34.01
67803;BME280;54601;51.378;-1.342;2023-03-13T07:03:00;97742.28;;;17.83;33.80
67803;BME280;54601;51.378;-1.342;2023-03-13T07:05:25;97748.17;;;17.34;34.19
67803;BME280;54601;51.378;-1.342;2023-03-13T07:07:50;97750.83;;;17.58;33.79
67803;BME280;54601;51.378;-1.342;2023-03-13T07:10:15;97740.61;;;17.89;33.66
67803;BME280;54601;51.378;-1.342;2023-03-13T07:12:40;97748.31;;;17.89;33.72
67803;BME280;54601;51.378;-1.342;2023-03-13T07:15:06;97746.37;;;17.58;33.85
67803;BME280;54601;51.378;-1.342;2023-03-13T07:17:30;97765.89;;;17.59;34.17
67803;BME280;54601;51.378;-1.342;2023-03-13T07:19:56;97760.93;;;17.72;33.89
67803;BME280;54601;51.378;-1.342;2023-03-13T07:22:21;97766.44;;;17.68;33.96
67803;BME280;54601;51.378;-1.342;2023-03-13T07:24:46;97759.11;;;17.77;33.84
67803;BME280;54601;51.378;-1.342;2023-03-13T07:27:11;97765.43;;;17.52;33.80
67803;BME280;54601;51.378;-1.342;2023-03-13T07:29:36;97756.18;;;17.77;33.81
67803;BME280;54601;51.378;-1.342;2023-03-13T07:32:01;97762.74;;;17.63;33.66
67803;BME280;54601;51.378;-1.342;2023-03-13T07:34:27;97748.99;;;18.02;33.45
67803;BME280;54601;51.378;-1.342;2023-03-13T07:36:52;97771.22;;;18.07;33.34
67803;BME280;54601;51.378;-1.342;2023-03-13T07:39:17;97755.10;;;17.61;33.94
67803;BME280;54601;51.378;-1.342;2023-03-13T07:41:42;97757.98;;;17.67;33.89
67803;BME280;54601;51.378;-1.342;2023-03-13T07:44:07;97757.63;;;17.60;33.94
67803;BME280;54601;51.378;-1.342;2023-03-13T07:46:32;97740.65;;;17.81;33.63
67803;BME280;54601;51.378;-1.342;2023-03-13T07:48:58;97744.54;;;17.85;33.66
67803;BME280;54601;51.378;-1.342;2023-03-13T07:51:24;97738.76;;;17.85;33.57
67803;BME280;54601;51.378;-1.342;2023-03-13T07:53:48;97745.24;;;17.89;33.60
67803;BME280;54601;51.378;-1.342;2023-03-13T07:56:15;97747.96;;;17.19;33.85
67803;BME280;54601;51.378;-1.342;2023-03-13T07:58:39;97753.32;;;17.98;33.45
67803;BME280;54601;51.378;-1.342;2023-03-13T08:01:08;97749.90;;;17.62;33.22
67803;BME280;54601;51.378;-1.342;2023-03-13T08:03:29;97748.58;;;18.47;32.83
67803;BME280;54601;51.378;-1.342;2023-03-13T08:05:58;97767.73;;;18.29;32.67
67803;BME280;54601;51.378;-1.342;2023-03-13T08:08:19;97761.45;;;17.87;32.91
67803;BME280;54601;51.378;-1.342;2023-03-13T08:10:44;97757.99;;;18.00;32.71
67803;BME280;54601;51.378;-1.342;2023-03-13T08:13:09;97751.30;;;18.31;32.58
67803;BME280;54601;51.378;-1.342;2023-03-13T08:15:35;97754.66;;;18.36;32.59
67803;BME280;54601;51.378;-1.342;2023-03-13T08:18:00;97749.01;;;18.29;32.54
67803;BME280;54601;51.378;-1.342;2023-03-13T08:20:25;97756.59;;;18.44;32.46
67803;BME280;54601;51.378;-1.342;2023-03-13T08:22:50;97752.67;;;18.43;32.30
67803;BME280;54601;51.378;-1.342;2023-03-13T08:25:16;97756.07;;;18.59;32.45
67803;BME280;54601;51.378;-1.342;2023-03-13T08:27:41;97747.97;;;18.50;32.57
67803;BME280;54601;51.378;-1.342;2023-03-13T08:30:07;97757.22;;;18.60;32.33
67803;BME280;54601;51.378;-1.342;2023-03-13T08:32:32;97744.54;;;18.49;32.14
67803;BME280;54601;51.378;-1.342;2023-03-13T08:34:56;97740.92;;;18.34;32.41
67803;BME280;54601;51.378;-1.342;2023-03-13T08:37:21;97750.44;;;18.20;32.29
67803;BME280;54601;51.378;-1.342;2023-03-13T08:39:47;97756.77;;;18.78;32.07
67803;BME280;54601;51.378;-1.342;2023-03-13T08:42:12;97751.22;;;18.22;32.18
67803;BME280;54601;51.378;-1.342;2023-03-13T08:44:37;97740.16;;;18.71;32.24
67803;BME280;54601;51.378;-1.342;2023-03-13T08:47:05;97758.71;;;18.77;32.08
67803;BME280;54601;51.378;-1.342;2023-03-13T08:49:27;97756.36;;;18.77;32.10
67803;BME280;54601;51.378;-1.342;2023-03-13T08:51:52;97729.88;;;18.16;32.20
67803;BME280;54601;51.378;-1.342;2023-03-13T08:54:18;97743.29;;;18.51;32.06
67803;BME280;54601;51.378;-1.342;2023-03-13T08:56:43;97744.84;;;18.27;32.34
67803;BME280;54601;51.378;-1.342;2023-03-13T08:59:09;97752.34;;;18.36;32.33
67803;BME280;54601;51.378;-1.342;2023-03-13T09:01:34;97732.77;;;18.58;32.40
67803;BME280;54601;51.378;-1.342;2023-03-13T09:03:58;97737.32;;;18.32;32.32
67803;BME280;54601;51.378;-1.342;2023-03-13T09:06:24;97724.11;;;18.12;32.28
67803;BME280;54601;51.378;-1.342;2023-03-13T09:08:49;97724.20;;;18.29;32.29
67803;BME280;54601;51.378;-1.342;2023-03-13T09:11:16;97736.85;;;18.27;32.25
67803;BME280;54601;51.378;-1.342;2023-03-13T09:13:41;97726.71;;;18.58;32.18
67803;BME280;54601;51.378;-1.342;2023-03-13T09:16:07;97738.49;;;18.68;32.18
67803;BME280;54601;51.378;-1.342;2023-03-13T09:18:30;97743.07;;;18.46;32.19
67803;BME280;54601;51.378;-1.342;2023-03-13T09:20:55;97733.77;;;18.61;32.13
67803;BME280;54601;51.378;-1.342;2023-03-13T09:23:21;97739.67;;;18.16;32.22
67803;BME280;54601;51.378;-1.342;2023-03-13T09:25:45;97754.10;;;18.61;32.27
67803;BME280;54601;51.378;-1.342;2023-03-13T09:28:10;97731.94;;;18.49;32.38
67803;BME280;54601;51.378;-1.342;2023-03-13T09:30:36;97732.80;;;17.98;32.37
67803;BME280;54601;51.378;-1.342;2023-03-13T09:33:01;97730.38;;;18.49;32.32
67803;BME280;54601;51.378;-1.342;2023-03-13T09:35:26;97722.11;;;17.97;32.41
67803;BME280;54601;51.378;-1.342;2023-03-13T09:37:51;97735.30;;;18.58;32.28
67803;BME280;54601;51.378;-1.342;2023-03-13T09:40:20;97738.03;;;18.47;32.34
67803;BME280;54601;51.378;-1.342;2023-03-13T09:42:46;97720.95;;;18.39;32.16
67803;BME280;54601;51.378;-1.342;2023-03-13T09:45:12;97728.50;;;18.03;32.22
67803;BME280;54601;51.378;-1.342;2023-03-13T09:47:37;97712.79;;;18.13;32.18
67803;BME280;54601;51.378;-1.342;2023-03-13T09:50:02;97728.48;;;18.67;32.10
67803;BME280;54601;51.378;-1.342;2023-03-13T09:52:24;97743.48;;;18.10;32.31
67803;BME280;54601;51.378;-1.342;2023-03-13T09:54:51;97741.82;;;18.70;32.05
67803;BME280;54601;51.378;-1.342;2023-03-13T09:57:19;97737.31;;;18.47;32.09
67803;BME280;54601;51.378;-1.342;2023-03-13T09:59:43;97732.46;;;18.30;31.94
67803;BME280;54601;51.378;-1.342;2023-03-13T10:02:14;97735.19;;;18.16;32.11
67803;BME280;54601;51.378;-1.342;2023-03-13T10:04:33;97743.42;;;18.55;31.96
67803;BME280;54601;51.378;-1.342;2023-03-13T10:06:54;97743.89;;;18.88;31.83
67803;BME280;54601;51.378;-1.342;2023-03-13T10:09:25;97748.98;;;18.26;32.05
67803;BME280;54601;51.378;-1.342;2023-03-13T10:11:50;97741.56;;;18.41;32.16
67803;BME280;54601;51.378;-1.342;2023-03-13T10:14:13;97738.44;;;18.55;32.26
67803;BME280;54601;51.378;-1.342;2023-03-13T10:16:39;97751.20;;;18.71;32.03
67803;BME280;54601;51.378;-1.342;2023-03-13T10:19:08;97752.31;;;18.74;32.13
67803;BME280;54601;51.378;-1.342;2023-03-13T10:21:31;97746.86;;;18.83;31.82
67803;BME280;54601;51.378;-1.342;2023-03-13T10:23:55;97755.86;;;18.67;31.86
67803;BME280;54601;51.378;-1.342;2023-03-13T10:26:20;97753.57;;;18.60;31.94
67803;BME280;54601;51.378;-1.342;2023-03-13T10:28:40;97742.83;;;18.63;31.91
67803;BME280;54601;51.378;-1.342;2023-03-13T10:31:13;97748.92;;;18.94;31.69
67803;BME280;54601;51.378;-1.342;2023-03-13T10:33:31;97740.07;;;18.48;31.65
67803;BME280;54601;51.378;-1.342;2023-03-13T10:36:03;97759.17;;;18.76;31.78
67803;BME280;54601;51.378;-1.342;2023-03-13T10:38:21;97754.77;;;18.68;31.82
67803;BME280;54601;51.378;-1.342;2023-03-13T10:40:55;97754.30;;;18.44;31.74
67803;BME280;54601;51.378;-1.342;2023-03-13T10:43:16;97747.63;;;18.60;32.10
67803;BME280;54601;51.378;-1.342;2023-03-13T10:45:37;97747.76;;;18.48;31.70
67803;BME280;54601;51.378;-1.342;2023-03-13T10:48:10;97736.10;;;18.51;31.67
67803;BME280;54601;51.378;-1.342;2023-03-13T10:50:33;97750.40;;;19.01;31.76
67803;BME280;54601;51.378;-1.342;2023-03-13T10:52:53;97745.51;;;18.42;31.90
67803;BME280;54601;51.378;-1.342;2023-03-13T10:55:20;97746.88;;;19.00;31.89
67803;BME280;54601;51.378;-1.342;2023-03-13T10:57:53;97723.13;;;18.79;31.76
67803;BME280;54601;51.378;-1.342;2023-03-13T11:02:35;97746.40;;;18.80;31.79
67803;BME280;54601;51.378;-1.342;2023-03-13T11:04:58;97740.35;;;18.79;31.69
67803;BME280;54601;51.378;-1.342;2023-03-13T11:07:28;97735.66;;;19.02;31.84
67803;BME280;54601;51.378;-1.342;2023-03-13T11:09:57;97730.54;;;18.49;31.94
67803;BME280;54601;51.378;-1.342;2023-03-13T11:12:19;97739.21;;;18.58;31.70
67803;BME280;54601;51.378;-1.342;2023-03-13T11:14:39;97724.69;;;18.41;31.98
67803;BME280;54601;51.378;-1.342;2023-03-13T11:17:12;97747.32;;;18.53;31.94
67803;BME280;54601;51.378;-1.342;2023-03-13T11:19:38;97743.74;;;18.91;32.00
67803;BME280;54601;51.378;-1.342;2023-03-13T11:22:06;97728.85;;;18.64;31.61
67803;BME280;54601;51.378;-1.342;2023-03-13T11:24:25;97734.02;;;18.65;31.72
67803;BME280;54601;51.378;-1.342;2023-03-13T11:26:52;97717.01;;;18.53;31.85
67803;BME280;54601;51.378;-1.342;2023-03-13T11:29:16;97725.76;;;18.98;31.98
67803;BME280;54601;51.378;-1.342;2023-03-13T11:31:38;97727.74;;;18.62;31.74
67803;BME280;54601;51.378;-1.342;2023-03-13T11:34:05;97717.28;;;18.65;31.61
67803;BME280;54601;51.378;-1.342;2023-03-13T11:36:32;97725.06;;;18.71;31.54
67803;BME280;54601;51.378;-1.342;2023-03-13T11:38:54;97723.93;;;18.63;31.77
67803;BME280;54601;51.378;-1.342;2023-03-13T11:41:29;97726.18;;;18.62;31.70
67803;BME280;54601;51.378;-1.342;2023-03-13T11:43:54;97720.64;;;18.53;31.87
67803;BME280;54601;51.378;-1.342;2023-03-13T11:46:15;97723.20;;;18.56;31.84
67803;BME280;54601;51.378;-1.342;2023-03-13T11:51:02;97730.26;;;18.89;31.65
67803;BME280;54601;51.378;-1.342;2023-03-13T11:53:34;97722.73;;;18.54;31.91
67803;BME280;54601;51.378;-1.342;2023-03-13T11:55:58;97715.83;;;18.65;31.51
67803;BME280;54601;51.378;-1.342;2023-03-13T11:58:25;97706.47;;;18.69;31.58
67803;BME280;54601;51.378;-1.342;2023-03-13T12:00:42;97699.51;;;18.64;31.76
67803;BME280;54601;51.378;-1.342;2023-03-13T12:03:09;97709.68;;;18.65;31.72
67803;BME280;54601;51.378;-1.342;2023-03-13T12:05:36;97700.26;;;18.56;31.81
67803;BME280;54601;51.378;-1.342;2023-03-13T12:07:57;97711.37;;;18.67;31.62
67803;BME280;54601;51.378;-1.342;2023-03-13T12:10:22;97704.74;;;18.72;31.56
67803;BME280;54601;51.378;-1.342;2023-03-13T12:12:46;97703.98;;;19.13;31.61
67803;BME280;54601;51.378;-1.342;2023-03-13T12:15:16;97698.55;;;18.89;31.67
67803;BME280;54601;51.378;-1.342;2023-03-13T12:17:36;97690.84;;;18.65;31.70
67803;BME280;54601;51.378;-1.342;2023-03-13T12:20:03;97698.13;;;18.67;31.46
67803;BME280;54601;51.378;-1.342;2023-03-13T12:22:29;97702.38;;;18.63;31.71
67803;BME280;54601;51.378;-1.342;2023-03-13T12:24:54;97700.08;;;18.52;31.89
67803;BME280;54601;51.378;-1.342;2023-03-13T12:27:18;97691.11;;;18.61;31.70
67803;BME280;54601;51.378;-1.342;2023-03-13T12:29:47;97692.13;;;18.62;31.64
67803;BME280;54601;51.378;-1.342;2023-03-13T12:32:11;97681.67;;;18.56;31.66
67803;BME280;54601;51.378;-1.342;2023-03-13T12:34:38;97682.88;;;18.58;31.55
67803;BME280;54601;51.378;-1.342;2023-03-13T12:37:00;97678.90;;;18.52;31.69
67803;BME280;54601;51.378;-1.342;2023-03-13T12:39:27;97671.39;;;19.07;31.83
67803;BME280;54601;51.378;-1.342;2023-03-13T12:41:49;97678.50;;;18.78;31.71
67803;BME280;54601;51.378;-1.342;2023-03-13T12:44:16;97665.52;;;18.82;31.64
67803;BME280;54601;51.378;-1.342;2023-03-13T12:46:40;97660.55;;;18.53;31.78
67803;BME280;54601;51.378;-1.342;2023-03-13T12:49:13;97659.13;;;18.45;31.83